sensor_id;sensor_type;location;lat;lon;timestamp;P1;durP1;ratioP1;P2;durP2;ratioP2
10582;SDS011;33679;51.218;6.786;2023-02-03T00:00:31;8.50;;;4.73;;
10582;SDS011;33679;51.218;6.786;2023-02-03T00:03:04;6.33;;;4.53;;
10582;SDS011;33679;51.218;6.786;2023-02-03T00:05:39;6.57;;;4.67;;
10582;SDS011;33679;51.218;6.786;2023-02-03T00:08:15;12.70;;;5.20;;
10582;SDS011;33679;51.218;6.786;2023-02-03T00:10:49;14.33;;;4.83;;
10582;SDS011;33679;51.218;6.786;2023-02-03T00:13:26;8.20;;;5.00;;
10582;SDS011;33679;51.218;6.786;2023-02-03T00:16:01;6.77;;;4.63;;
10582;SDS011;33679;51.218;6.786;2023-02-03T00:18:47;8.10;;;5.57;;
10582;SDS011;33679;51.218;6.786;2023-02-03T00:21:26;13.20;;;5.13;;
10582;SDS011;33679;51.218;6.786;2023-02-03T00:23:59;7.13;;;3.80;;
10582;SDS011;33679;51.218;6.786;2023-02-03T00:26:32;8.60;;;4.60;;
10582;SDS011;33679;51.218;6.786;2023-02-03T00:29:04;8.33;;;5.60;;
10582;SDS011;33679;51.218;6.786;2023-02-03T00:31:39;6.53;;;3.73;;
10582;SDS011;33679;51.218;6.786;2023-02-03T00:34:15;10.93;;;4.90;;
10582;SDS011;33679;51.218;6.786;2023-02-03T00:36:48;9.40;;;4.80;;
10582;SDS011;33679;51.218;6.786;2023-02-03T00:39:21;4.17;;;3.77;;
10582;SDS011;33679;51.218;6.786;2023-02-03T00:41:53;8.23;;;4.23;;
10582;SDS011;33679;51.218;6.786;2023-02-03T00:44:27;4.50;;;3.57;;
10582;SDS011;33679;51.218;6.786;2023-02-03T00:47:04;6.23;;;3.90;;
10582;SDS011;33679;51.218;6.786;2023-02-03T00:49:39;6.87;;;4.00;;
10582;SDS011;33679;51.218;6.786;2023-02-03T00:52:16;4.60;;;4.07;;
10582;SDS011;33679;51.218;6.786;2023-02-03T00:54:51;8.97;;;4.20;;
10582;SDS011;33679;51.218;6.786;2023-02-03T00:57:25;6.60;;;3.80;;
10582;SDS011;33679;51.218;6.786;2023-02-03T00:59:58;6.90;;;4.00;;
10582;SDS011;33679;51.218;6.786;2023-02-03T01:02:32;13.23;;;3.70;;
10582;SDS011;33679;51.218;6.786;2023-02-03T01:05:46;8.77;;;4.10;;
10582;SDS011;33679;51.218;6.786;2023-02-03T01:08:03;6.77;;;3.80;;
10582;SDS011;33679;51.218;6.786;2023-02-03T01:10:36;7.93;;;4.03;;
10582;SDS011;33679;51.218;6.786;2023-02-03T01:13:09;9.63;;;4.20;;
10582;SDS011;33679;51.218;6.786;2023-02-03T01:15:49;6.50;;;3.60;;
10582;SDS011;33679;51.218;6.786;2023-02-03T01:18:32;5.70;;;4.60;;
10582;SDS011;33679;51.218;6.786;2023-02-03T01:21:09;5.50;;;3.40;;
10582;SDS011;33679;51.218;6.786;2023-02-03T01:23:46;15.00;;;3.60;;
10582;SDS011;33679;51.218;6.786;2023-02-03T01:26:22;7.57;;;3.77;;
10582;SDS011;33679;51.218;6.786;2023-02-03T01:29:07;5.87;;;3.13;;
10582;SDS011;33679;51.218;6.786;2023-02-03T01:31:44;6.93;;;3.83;;
10582;SDS011;33679;51.218;6.786;2023-02-03T01:34:18;8.07;;;3.20;;
10582;SDS011;33679;51.218;6.786;2023-02-03T01:36:51;7.73;;;3.10;;
10582;SDS011;33679;51.218;6.786;2023-02-03T01:39:25;7.57;;;3.60;;
10582;SDS011;33679;51.218;6.786;2023-02-03T01:42:00;5.97;;;3.60;;
10582;SDS011;33679;51.218;6.786;2023-02-03T01:44:39;4.03;;;3.30;;
10582;SDS011;33679;51.218;6.786;2023-02-03T01:47:17;7.10;;;3.47;;
10582;SDS011;33679;51.218;6.786;2023-02-03T01:50:01;6.03;;;4.37;;
10582;SDS011;33679;51.218;6.786;2023-02-03T01:52:40;4.47;;;3.10;;
10582;SDS011;33679;51.218;6.786;2023-02-03T01:55:22;8.40;;;3.63;;
10582;SDS011;33679;51.218;6.786;2023-02-03T01:58:09;6.57;;;3.30;;
10582;SDS011;33679;51.218;6.786;2023-02-03T02:00:46;9.07;;;3.73;;
10582;SDS011;33679;51.218;6.786;2023-02-03T02:03:22;7.57;;;2.93;;
10582;SDS011;33679;51.218;6.786;2023-02-03T02:06:01;7.67;;;3.10;;
10582;SDS011;33679;51.218;6.786;2023-02-03T02:08:39;6.70;;;3.57;;
10582;SDS011;33679;51.218;6.786;2023-02-03T02:11:15;6.60;;;3.50;;
10582;SDS011;33679;51.218;6.786;2023-02-03T02:13:50;3.63;;;2.50;;
10582;SDS011;33679;51.218;6.786;2023-02-03T02:16:33;5.27;;;3.50;;
10582;SDS011;33679;51.218;6.786;2023-02-03T02:19:23;5.50;;;3.33;;
10582;SDS011;33679;51.218;6.786;2023-02-03T02:22:17;9.33;;;3.70;;
10582;SDS011;33679;51.218;6.786;2023-02-03T02:34:26;6.80;;;3.03;;
10582;SDS011;33679;51.218;6.786;2023-02-03T02:37:16;5.70;;;3.13;;
10582;SDS011;33679;51.218;6.786;2023-02-03T02:40:02;3.77;;;3.00;;
10582;SDS011;33679;51.218;6.786;2023-02-03T02:42:43;5.93;;;3.13;;
10582;SDS011;33679;51.218;6.786;2023-02-03T02:45:26;12.13;;;3.13;;
10582;SDS011;33679;51.218;6.786;2023-02-03T02:48:04;5.83;;;2.70;;
10582;SDS011;33679;51.218;6.786;2023-02-03T02:50:40;7.33;;;2.93;;
10582;SDS011;33679;51.218;6.786;2023-02-03T02:53:24;4.57;;;3.20;;
10582;SDS011;33679;51.218;6.786;2023-02-03T02:56:00;5.53;;;2.43;;
10582;SDS011;33679;51.218;6.786;2023-02-03T02:58:39;8.33;;;3.43;;
10582;SDS011;33679;51.218;6.786;2023-02-03T03:01:16;12.00;;;4.10;;
10582;SDS011;33679;51.218;6.786;2023-02-03T03:03:51;5.20;;;3.00;;
10582;SDS011;33679;51.218;6.786;2023-02-03T03:06:23;5.90;;;2.77;;
10582;SDS011;33679;51.218;6.786;2023-02-03T03:11:50;4.00;;;2.73;;
10582;SDS011;33679;51.218;6.786;2023-02-03T03:14:28;4.37;;;2.77;;
10582;SDS011;33679;51.218;6.786;2023-02-03T03:17:03;6.47;;;2.90;;
10582;SDS011;33679;51.218;6.786;2023-02-03T03:19:41;6.37;;;2.80;;
10582;SDS011;33679;51.218;6.786;2023-02-03T03:22:17;5.33;;;3.13;;
10582;SDS011;33679;51.218;6.786;2023-02-03T03:24:57;4.27;;;3.10;;
10582;SDS011;33679;51.218;6.786;2023-02-03T03:27:32;5.07;;;2.93;;
10582;SDS011;33679;51.218;6.786;2023-02-03T03:30:09;7.30;;;3.30;;
10582;SDS011;33679;51.218;6.786;2023-02-03T03:32:46;3.87;;;2.77;;
10582;SDS011;33679;51.218;6.786;2023-02-03T03:35:21;5.27;;;3.10;;
10582;SDS011;33679;51.218;6.786;2023-02-03T03:37:55;8.27;;;3.67;;
10582;SDS011;33679;51.218;6.786;2023-02-03T03:40:33;4.00;;;3.00;;
10582;SDS011;33679;51.218;6.786;2023-02-03T03:43:10;8.20;;;3.50;;
10582;SDS011;33679;51.218;6.786;2023-02-03T03:45:46;7.17;;;3.70;;
10582;SDS011;33679;51.218;6.786;2023-02-03T03:48:25;5.37;;;3.30;;
10582;SDS011;33679;51.218;6.786;2023-02-03T03:51:03;4.90;;;3.23;;
10582;SDS011;33679;51.218;6.786;2023-02-03T03:53:39;5.20;;;3.40;;
10582;SDS011;33679;51.218;6.786;2023-02-03T03:56:15;6.83;;;3.70;;
10582;SDS011;33679;51.218;6.786;2023-02-03T03:58:52;4.53;;;3.40;;
10582;SDS011;33679;51.218;6.786;2023-02-03T04:01:28;4.70;;;3.70;;
10582;SDS011;33679;51.218;6.786;2023-02-03T04:04:05;8.97;;;4.80;;
10582;SDS011;33679;51.218;6.786;2023-02-03T04:06:41;4.77;;;3.50;;
10582;SDS011;33679;51.218;6.786;2023-02-03T04:09:13;7.03;;;4.10;;
10582;SDS011;33679;51.218;6.786;2023-02-03T04:11:51;6.00;;;3.53;;
10582;SDS011;33679;51.218;6.786;2023-02-03T04:14:39;8.13;;;3.70;;
10582;SDS011;33679;51.218;6.786;2023-02-03T04:17:14;4.03;;;3.17;;
10582;SDS011;33679;51.218;6.786;2023-02-03T04:19:49;7.87;;;3.57;;
10582;SDS011;33679;51.218;6.786;2023-02-03T04:22:23;7.53;;;3.63;;
10582;SDS011;33679;51.218;6.786;2023-02-03T04:24:55;5.73;;;2.57;;
10582;SDS011;33679;51.218;6.786;2023-02-03T04:27:28;4.00;;;2.90;;
10582;SDS011;33679;51.218;6.786;2023-02-03T04:30:01;4.23;;;2.53;;
10582;SDS011;33679;51.218;6.786;2023-02-03T04:32:34;4.73;;;3.13;;
10582;SDS011;33679;51.218;6.786;2023-02-03T04:35:07;4.10;;;2.80;;
10582;SDS011;33679;51.218;6.786;2023-02-03T04:37:41;4.37;;;2.33;;
10582;SDS011;33679;51.218;6.786;2023-02-03T04:40:16;5.77;;;2.70;;
10582;SDS011;33679;51.218;6.786;2023-02-03T04:42:48;6.43;;;3.80;;
10582;SDS011;33679;51.218;6.786;2023-02-03T04:45:21;4.93;;;2.87;;
10582;SDS011;33679;51.218;6.786;2023-02-03T04:47:53;3.90;;;2.70;;
10582;SDS011;33679;51.218;6.786;2023-02-03T04:50:26;5.07;;;2.60;;
10582;SDS011;33679;51.218;6.786;2023-02-03T04:53:00;3.80;;;2.30;;
10582;SDS011;33679;51.218;6.786;2023-02-03T04:55:33;7.00;;;3.23;;
10582;SDS011;33679;51.218;6.786;2023-02-03T04:58:06;10.83;;;3.20;;
10582;SDS011;33679;51.218;6.786;2023-02-03T05:00:39;7.93;;;3.23;;
10582;SDS011;33679;51.218;6.786;2023-02-03T05:03:11;6.80;;;2.73;;
10582;SDS011;33679;51.218;6.786;2023-02-03T05:05:44;7.93;;;3.43;;
10582;SDS011;33679;51.218;6.786;2023-02-03T05:08:18;6.93;;;2.80;;
10582;SDS011;33679;51.218;6.786;2023-02-03T05:10:51;2.73;;;2.07;;
10582;SDS011;33679;51.218;6.786;2023-02-03T05:13:23;7.40;;;2.80;;
10582;SDS011;33679;51.218;6.786;2023-02-03T05:15:55;3.33;;;2.47;;
10582;SDS011;33679;51.218;6.786;2023-02-03T05:18:28;3.80;;;2.83;;
10582;SDS011;33679;51.218;6.786;2023-02-03T05:21:00;5.97;;;2.63;;
10582;SDS011;33679;51.218;6.786;2023-02-03T05:23:34;7.03;;;2.07;;
10582;SDS011;33679;51.218;6.786;2023-02-03T05:26:08;11.93;;;3.10;;
10582;SDS011;33679;51.218;6.786;2023-02-03T05:28:41;5.00;;;2.20;;
10582;SDS011;33679;51.218;6.786;2023-02-03T05:31:16;5.37;;;2.27;;
10582;SDS011;33679;51.218;6.786;2023-02-03T05:33:48;6.50;;;2.17;;
10582;SDS011;33679;51.218;6.786;2023-02-03T05:36:22;5.37;;;2.07;;
10582;SDS011;33679;51.218;6.786;2023-02-03T05:38:56;5.43;;;2.37;;
10582;SDS011;33679;51.218;6.786;2023-02-03T05:41:31;3.97;;;2.00;;
10582;SDS011;33679;51.218;6.786;2023-02-03T05:44:21;4.23;;;1.90;;
10582;SDS011;33679;51.218;6.786;2023-02-03T05:46:54;8.23;;;3.50;;
10582;SDS011;33679;51.218;6.786;2023-02-03T05:49:28;6.27;;;2.00;;
10582;SDS011;33679;51.218;6.786;2023-02-03T05:52:01;5.37;;;1.87;;
10582;SDS011;33679;51.218;6.786;2023-02-03T05:54:36;6.13;;;2.07;;
10582;SDS011;33679;51.218;6.786;2023-02-03T05:57:08;3.60;;;2.00;;
10582;SDS011;33679;51.218;6.786;2023-02-03T05:59:44;4.33;;;1.93;;
10582;SDS011;33679;51.218;6.786;2023-02-03T06:02:16;3.37;;;1.63;;
10582;SDS011;33679;51.218;6.786;2023-02-03T06:04:49;4.30;;;1.80;;
10582;SDS011;33679;51.218;6.786;2023-02-03T06:07:24;5.40;;;1.77;;
10582;SDS011;33679;51.218;6.786;2023-02-03T06:09:58;6.13;;;2.60;;
10582;SDS011;33679;51.218;6.786;2023-02-03T06:12:33;3.43;;;1.40;;
10582;SDS011;33679;51.218;6.786;2023-02-03T06:15:06;7.33;;;4.03;;
10582;SDS011;33679;51.218;6.786;2023-02-03T06:17:42;4.60;;;2.23;;
10582;SDS011;33679;51.218;6.786;2023-02-03T06:20:31;3.37;;;1.53;;
10582;SDS011;33679;51.218;6.786;2023-02-03T06:23:03;6.00;;;1.70;;
10582;SDS011;33679;51.218;6.786;2023-02-03T06:25:36;6.20;;;1.87;;
10582;SDS011;33679;51.218;6.786;2023-02-03T06:28:09;3.23;;;1.30;;
10582;SDS011;33679;51.218;6.786;2023-02-03T06:30:41;3.83;;;2.73;;
10582;SDS011;33679;51.218;6.786;2023-02-03T06:33:14;12.60;;;4.17;;
10582;SDS011;33679;51.218;6.786;2023-02-03T06:35:46;9.13;;;4.50;;
10582;SDS011;33679;51.218;6.786;2023-02-03T06:38:18;6.00;;;2.17;;
10582;SDS011;33679;51.218;6.786;2023-02-03T06:40:52;3.00;;;1.70;;
10582;SDS011;33679;51.218;6.786;2023-02-03T06:43:28;6.23;;;1.60;;
10582;SDS011;33679;51.218;6.786;2023-02-03T06:46:00;10.17;;;1.60;;
10582;SDS011;33679;51.218;6.786;2023-02-03T06:48:32;8.77;;;1.77;;
10582;SDS011;33679;51.218;6.786;2023-02-03T06:51:07;1.60;;;1.40;;
10582;SDS011;33679;51.218;6.786;2023-02-03T06:53:39;3.30;;;1.60;;
10582;SDS011;33679;51.218;6.786;2023-02-03T06:56:13;5.47;;;1.90;;
10582;SDS011;33679;51.218;6.786;2023-02-03T06:58:45;2.40;;;1.60;;
10582;SDS011;33679;51.218;6.786;2023-02-03T07:01:18;7.43;;;4.70;;
10582;SDS011;33679;51.218;6.786;2023-02-03T07:03:50;5.50;;;2.17;;
10582;SDS011;33679;51.218;6.786;2023-02-03T07:06:24;1.73;;;1.50;;
10582;SDS011;33679;51.218;6.786;2023-02-03T07:08:58;4.13;;;2.20;;
10582;SDS011;33679;51.218;6.786;2023-02-03T07:11:35;5.73;;;2.20;;
10582;SDS011;33679;51.218;6.786;2023-02-03T07:14:07;12.70;;;2.40;;
10582;SDS011;33679;51.218;6.786;2023-02-03T07:16:39;7.57;;;1.90;;
10582;SDS011;33679;51.218;6.786;2023-02-03T07:19:12;3.20;;;1.93;;
10582;SDS011;33679;51.218;6.786;2023-02-03T07:21:44;4.47;;;1.83;;
10582;SDS011;33679;51.218;6.786;2023-02-03T07:24:17;4.70;;;2.40;;
10582;SDS011;33679;51.218;6.786;2023-02-03T07:26:53;7.17;;;1.90;;
10582;SDS011;33679;51.218;6.786;2023-02-03T07:29:26;3.63;;;2.03;;
10582;SDS011;33679;51.218;6.786;2023-02-03T07:32:00;3.63;;;2.30;;
10582;SDS011;33679;51.218;6.786;2023-02-03T07:34:32;4.90;;;2.30;;
10582;SDS011;33679;51.218;6.786;2023-02-03T07:37:04;6.03;;;1.90;;
10582;SDS011;33679;51.218;6.786;2023-02-03T07:39:37;4.33;;;2.00;;
10582;SDS011;33679;51.218;6.786;2023-02-03T07:42:11;3.47;;;2.27;;
10582;SDS011;33679;51.218;6.786;2023-02-03T07:44:48;3.83;;;2.30;;
10582;SDS011;33679;51.218;6.786;2023-02-03T07:47:21;8.13;;;4.00;;
10582;SDS011;33679;51.218;6.786;2023-02-03T07:49:53;5.40;;;2.77;;
10582;SDS011;33679;51.218;6.786;2023-02-03T07:52:26;3.67;;;2.00;;
10582;SDS011;33679;51.218;6.786;2023-02-03T07:54:58;3.93;;;2.10;;
10582;SDS011;33679;51.218;6.786;2023-02-03T07:57:35;3.00;;;2.10;;
10582;SDS011;33679;51.218;6.786;2023-02-03T08:00:14;4.87;;;2.23;;
10582;SDS011;33679;51.218;6.786;2023-02-03T08:02:47;3.83;;;1.80;;
10582;SDS011;33679;51.218;6.786;2023-02-03T08:05:19;4.80;;;1.87;;
10582;SDS011;33679;51.218;6.786;2023-02-03T08:07:52;4.80;;;2.00;;
10582;SDS011;33679;51.218;6.786;2023-02-03T08:10:25;2.37;;;1.93;;
10582;SDS011;33679;51.218;6.786;2023-02-03T08:13:02;3.10;;;1.50;;
10582;SDS011;33679;51.218;6.786;2023-02-03T08:15:36;5.33;;;2.00;;
10582;SDS011;33679;51.218;6.786;2023-02-03T08:18:12;7.03;;;4.57;;
10582;SDS011;33679;51.218;6.786;2023-02-03T08:20:45;6.30;;;3.47;;
10582;SDS011;33679;51.218;6.786;2023-02-03T08:23:18;9.40;;;4.10;;
10582;SDS011;33679;51.218;6.786;2023-02-03T08:25:50;5.83;;;2.20;;
10582;SDS011;33679;51.218;6.786;2023-02-03T08:28:24;5.90;;;2.40;;
10582;SDS011;33679;51.218;6.786;2023-02-03T08:30:57;5.57;;;2.07;;
10582;SDS011;33679;51.218;6.786;2023-02-03T08:33:30;7.20;;;2.37;;
10582;SDS011;33679;51.218;6.786;2023-02-03T08:36:02;3.93;;;1.80;;
10582;SDS011;33679;51.218;6.786;2023-02-03T08:38:36;7.40;;;2.40;;
10582;SDS011;33679;51.218;6.786;2023-02-03T08:41:09;2.53;;;2.20;;
10582;SDS011;33679;51.218;6.786;2023-02-03T08:43:44;5.77;;;2.57;;
10582;SDS011;33679;51.218;6.786;2023-02-03T08:46:16;5.10;;;2.57;;
10582;SDS011;33679;51.218;6.786;2023-02-03T08:48:49;8.57;;;6.10;;
10582;SDS011;33679;51.218;6.786;2023-02-03T08:51:22;11.50;;;5.10;;
10582;SDS011;33679;51.218;6.786;2023-02-03T08:53:55;6.97;;;3.23;;
10582;SDS011;33679;51.218;6.786;2023-02-03T08:56:28;6.03;;;2.70;;
10582;SDS011;33679;51.218;6.786;2023-02-03T08:59:02;5.47;;;2.83;;
10582;SDS011;33679;51.218;6.786;2023-02-03T09:01:35;8.67;;;3.67;;
10582;SDS011;33679;51.218;6.786;2023-02-03T09:04:11;4.13;;;2.97;;
10582;SDS011;33679;51.218;6.786;2023-02-03T09:06:45;5.60;;;2.90;;
10582;SDS011;33679;51.218;6.786;2023-02-03T09:09:18;6.20;;;3.57;;
10582;SDS011;33679;51.218;6.786;2023-02-03T09:11:50;3.43;;;3.07;;
10582;SDS011;33679;51.218;6.786;2023-02-03T09:14:26;4.80;;;3.07;;
10582;SDS011;33679;51.218;6.786;2023-02-03T09:16:58;8.00;;;3.50;;
10582;SDS011;33679;51.218;6.786;2023-02-03T09:19:31;7.77;;;3.67;;
10582;SDS011;33679;51.218;6.786;2023-02-03T09:22:04;9.50;;;4.03;;
10582;SDS011;33679;51.218;6.786;2023-02-03T09:24:36;5.00;;;3.80;;
10582;SDS011;33679;51.218;6.786;2023-02-03T09:27:10;4.53;;;3.63;;
10582;SDS011;33679;51.218;6.786;2023-02-03T09:29:44;8.10;;;3.30;;
10582;SDS011;33679;51.218;6.786;2023-02-03T09:32:19;4.47;;;3.30;;
10582;SDS011;33679;51.218;6.786;2023-02-03T09:34:52;8.40;;;4.17;;
10582;SDS011;33679;51.218;6.786;2023-02-03T09:37:24;10.13;;;4.10;;
10582;SDS011;33679;51.218;6.786;2023-02-03T09:39:59;6.63;;;3.73;;
10582;SDS011;33679;51.218;6.786;2023-02-03T09:45:28;9.43;;;4.30;;
10582;SDS011;33679;51.218;6.786;2023-02-03T09:48:02;6.80;;;4.17;;
10582;SDS011;33679;51.218;6.786;2023-02-03T09:50:37;4.30;;;3.87;;
10582;SDS011;33679;51.218;6.786;2023-02-03T09:53:17;14.80;;;7.90;;
10582;SDS011;33679;51.218;6.786;2023-02-03T09:55:57;9.40;;;5.63;;
10582;SDS011;33679;51.218;6.786;2023-02-03T09:58:32;6.27;;;4.53;;
10582;SDS011;33679;51.218;6.786;2023-02-03T10:01:07;9.33;;;6.07;;
10582;SDS011;33679;51.218;6.786;2023-02-03T10:03:44;16.30;;;8.73;;
10582;SDS011;33679;51.218;6.786;2023-02-03T10:06:26;11.80;;;6.10;;
10582;SDS011;33679;51.218;6.786;2023-02-03T10:09:19;8.20;;;5.20;;
10582;SDS011;33679;51.218;6.786;2023-02-03T10:12:06;6.73;;;5.27;;
10582;SDS011;33679;51.218;6.786;2023-02-03T10:18:15;6.20;;;4.47;;
10582;SDS011;33679;51.218;6.786;2023-02-03T10:20:52;7.13;;;5.33;;
10582;SDS011;33679;51.218;6.786;2023-02-03T10:23:28;13.43;;;8.90;;
10582;SDS011;33679;51.218;6.786;2023-02-03T10:26:04;8.90;;;5.27;;
10582;SDS011;33679;51.218;6.786;2023-02-03T10:28:39;11.07;;;6.43;;
10582;SDS011;33679;51.218;6.786;2023-02-03T10:31:16;13.30;;;6.00;;
10582;SDS011;33679;51.218;6.786;2023-02-03T10:33:55;12.37;;;5.87;;
10582;SDS011;33679;51.218;6.786;2023-02-03T10:36:32;8.57;;;5.63;;
10582;SDS011;33679;51.218;6.786;2023-02-03T10:39:18;8.50;;;5.60;;
10582;SDS011;33679;51.218;6.786;2023-02-03T10:41:56;11.17;;;7.10;;
10582;SDS011;33679;51.218;6.786;2023-02-03T10:44:31;11.93;;;5.73;;
10582;SDS011;33679;51.218;6.786;2023-02-03T10:47:12;6.73;;;6.03;;
10582;SDS011;33679;51.218;6.786;2023-02-03T10:49:57;7.50;;;5.60;;
10582;SDS011;33679;51.218;6.786;2023-02-03T10:52:47;10.67;;;5.70;;
10582;SDS011;33679;51.218;6.786;2023-02-03T10:55:30;6.23;;;5.60;;
10582;SDS011;33679;51.218;6.786;2023-02-03T10:58:05;10.27;;;6.27;;
10582;SDS011;33679;51.218;6.786;2023-02-03T11:00:47;10.63;;;6.73;;
10582;SDS011;33679;51.218;6.786;2023-02-03T11:03:27;12.40;;;5.70;;
10582;SDS011;33679;51.218;6.786;2023-02-03T11:06:09;7.47;;;5.57;;
10582;SDS011;33679;51.218;6.786;2023-02-03T11:08:45;8.37;;;5.47;;
10582;SDS011;33679;51.218;6.786;2023-02-03T11:11:21;14.13;;;6.43;;
10582;SDS011;33679;51.218;6.786;2023-02-03T11:13:55;9.03;;;6.40;;
10582;SDS011;33679;51.218;6.786;2023-02-03T11:16:42;10.20;;;6.50;;
10582;SDS011;33679;51.218;6.786;2023-02-03T11:19:16;8.50;;;7.43;;
10582;SDS011;33679;51.218;6.786;2023-02-03T11:21:52;10.90;;;6.80;;
10582;SDS011;33679;51.218;6.786;2023-02-03T11:24:26;9.33;;;5.80;;
10582;SDS011;33679;51.218;6.786;2023-02-03T11:27:04;7.40;;;6.03;;
10582;SDS011;33679;51.218;6.786;2023-02-03T11:29:42;9.60;;;6.60;;
10582;SDS011;33679;51.218;6.786;2023-02-03T11:32:17;11.53;;;6.43;;
10582;SDS011;33679;51.218;6.786;2023-02-03T11:34:54;10.53;;;7.30;;
10582;SDS011;33679;51.218;6.786;2023-02-03T11:37:30;11.17;;;7.37;;
10582;SDS011;33679;51.218;6.786;2023-02-03T11:40:13;21.00;;;9.50;;
10582;SDS011;33679;51.218;6.786;2023-02-03T11:43:00;14.40;;;8.90;;
10582;SDS011;33679;51.218;6.786;2023-02-03T11:45:36;10.47;;;7.10;;
10582;SDS011;33679;51.218;6.786;2023-02-03T11:48:15;8.07;;;6.40;;
10582;SDS011;33679;51.218;6.786;2023-02-03T11:50:56;11.23;;;6.37;;
10582;SDS011;33679;51.218;6.786;2023-02-03T11:53:54;8.27;;;5.90;;
10582;SDS011;33679;51.218;6.786;2023-02-03T11:56:43;7.57;;;6.03;;
10582;SDS011;33679;51.218;6.786;2023-02-03T11:59:55;8.67;;;6.67;;
10582;SDS011;33679;51.218;6.786;2023-02-03T12:06:05;8.77;;;5.20;;
10582;SDS011;33679;51.218;6.786;2023-02-03T12:09:08;6.33;;;4.93;;
10582;SDS011;33679;51.218;6.786;2023-02-03T12:12:04;7.57;;;5.20;;
10582;SDS011;33679;51.218;6.786;2023-02-03T12:15:05;9.80;;;4.50;;
10582;SDS011;33679;51.218;6.786;2023-02-03T12:18:13;5.00;;;4.50;;
10582;SDS011;33679;51.218;6.786;2023-02-03T12:20:56;8.20;;;4.97;;
10582;SDS011;33679;51.218;6.786;2023-02-03T12:23:39;6.77;;;4.53;;
10582;SDS011;33679;51.218;6.786;2023-02-03T12:29:14;11.60;;;4.23;;
10582;SDS011;33679;51.218;6.786;2023-02-03T12:31:53;9.13;;;5.90;;
10582;SDS011;33679;51.218;6.786;2023-02-03T12:34:32;13.00;;;7.50;;
10582;SDS011;33679;51.218;6.786;2023-02-03T12:37:11;8.43;;;4.77;;
10582;SDS011;33679;51.218;6.786;2023-02-03T12:39:48;6.43;;;3.47;;
10582;SDS011;33679;51.218;6.786;2023-02-03T12:42:26;7.20;;;3.57;;
10582;SDS011;33679;51.218;6.786;2023-02-03T12:45:02;6.90;;;3.73;;
10582;SDS011;33679;51.218;6.786;2023-02-03T12:47:42;6.00;;;3.60;;
10582;SDS011;33679;51.218;6.786;2023-02-03T12:50:18;7.70;;;3.47;;
10582;SDS011;33679;51.218;6.786;2023-02-03T12:52:54;9.37;;;3.67;;
10582;SDS011;33679;51.218;6.786;2023-02-03T12:55:34;6.50;;;2.93;;
10582;SDS011;33679;51.218;6.786;2023-02-03T12:58:10;4.93;;;3.27;;
10582;SDS011;33679;51.218;6.786;2023-02-03T13:00:50;11.20;;;4.33;;
10582;SDS011;33679;51.218;6.786;2023-02-03T13:03:27;5.17;;;3.10;;
10582;SDS011;33679;51.218;6.786;2023-02-03T13:06:07;5.47;;;3.13;;
10582;SDS011;33679;51.218;6.786;2023-02-03T13:08:49;7.43;;;3.20;;
10582;SDS011;33679;51.218;6.786;2023-02-03T13:11:27;9.10;;;3.10;;
10582;SDS011;33679;51.218;6.786;2023-02-03T13:14:09;5.73;;;2.57;;
10582;SDS011;33679;51.218;6.786;2023-02-03T13:16:57;7.97;;;3.30;;
10582;SDS011;33679;51.218;6.786;2023-02-03T13:19:50;5.53;;;2.93;;
10582;SDS011;33679;51.218;6.786;2023-02-03T13:23:04;6.00;;;3.17;;
10582;SDS011;33679;51.218;6.786;2023-02-03T13:29:00;5.53;;;3.07;;
10582;SDS011;33679;51.218;6.786;2023-02-03T13:35:12;3.97;;;2.43;;
10582;SDS011;33679;51.218;6.786;2023-02-03T13:38:00;30.97;;;7.40;;
10582;SDS011;33679;51.218;6.786;2023-02-03T13:40:50;10.50;;;4.00;;
10582;SDS011;33679;51.218;6.786;2023-02-03T13:43:34;11.20;;;3.80;;
10582;SDS011;33679;51.218;6.786;2023-02-03T13:46:17;9.50;;;3.20;;
10582;SDS011;33679;51.218;6.786;2023-02-03T13:48:59;7.40;;;2.90;;
10582;SDS011;33679;51.218;6.786;2023-02-03T13:51:37;6.70;;;2.73;;
10582;SDS011;33679;51.218;6.786;2023-02-03T13:54:20;6.93;;;3.00;;
10582;SDS011;33679;51.218;6.786;2023-02-03T13:56:58;3.87;;;2.67;;
10582;SDS011;33679;51.218;6.786;2023-02-03T13:59:40;5.00;;;3.07;;
10582;SDS011;33679;51.218;6.786;2023-02-03T14:05:42;4.70;;;2.90;;
10582;SDS011;33679;51.218;6.786;2023-02-03T14:11:44;7.93;;;4.40;;
10582;SDS011;33679;51.218;6.786;2023-02-03T14:20:38;9.03;;;3.20;;
10582;SDS011;33679;51.218;6.786;2023-02-03T14:23:22;11.63;;;2.73;;
10582;SDS011;33679;51.218;6.786;2023-02-03T14:26:00;5.40;;;3.07;;
10582;SDS011;33679;51.218;6.786;2023-02-03T14:28:37;7.00;;;3.90;;
10582;SDS011;33679;51.218;6.786;2023-02-03T14:31:13;8.63;;;3.50;;
10582;SDS011;33679;51.218;6.786;2023-02-03T14:33:56;5.50;;;2.43;;
10582;SDS011;33679;51.218;6.786;2023-02-03T14:36:48;9.00;;;3.13;;
10582;SDS011;33679;51.218;6.786;2023-02-03T14:42:52;10.80;;;3.00;;
10582;SDS011;33679;51.218;6.786;2023-02-03T14:45:53;13.20;;;3.70;;
10582;SDS011;33679;51.218;6.786;2023-02-03T14:49:14;5.83;;;3.83;;
10582;SDS011;33679;51.218;6.786;2023-02-03T14:52:13;5.90;;;2.90;;
10582;SDS011;33679;51.218;6.786;2023-02-03T14:55:17;4.80;;;3.40;;
10582;SDS011;33679;51.218;6.786;2023-02-03T14:58:04;4.07;;;3.00;;
10582;SDS011;33679;51.218;6.786;2023-02-03T15:01:24;6.30;;;2.90;;
10582;SDS011;33679;51.218;6.786;2023-02-03T15:04:21;8.57;;;2.70;;
10582;SDS011;33679;51.218;6.786;2023-02-03T15:06:56;7.40;;;2.90;;
10582;SDS011;33679;51.218;6.786;2023-02-03T15:09:30;5.87;;;3.53;;
10582;SDS011;33679;51.218;6.786;2023-02-03T15:12:17;5.67;;;3.47;;
10582;SDS011;33679;51.218;6.786;2023-02-03T15:14:53;6.80;;;3.63;;
10582;SDS011;33679;51.218;6.786;2023-02-03T15:17:44;8.40;;;3.77;;
10582;SDS011;33679;51.218;6.786;2023-02-03T15:20:24;5.60;;;2.70;;
10582;SDS011;33679;51.218;6.786;2023-02-03T15:23:15;5.77;;;2.00;;
10582;SDS011;33679;51.218;6.786;2023-02-03T15:25:55;6.47;;;2.30;;
10582;SDS011;33679;51.218;6.786;2023-02-03T15:28:30;7.63;;;2.13;;
10582;SDS011;33679;51.218;6.786;2023-02-03T15:31:03;7.13;;;2.20;;
10582;SDS011;33679;51.218;6.786;2023-02-03T15:33:46;7.03;;;2.03;;
10582;SDS011;33679;51.218;6.786;2023-02-03T15:36:22;4.90;;;2.70;;
10582;SDS011;33679;51.218;6.786;2023-02-03T15:39:01;6.33;;;2.17;;
10582;SDS011;33679;51.218;6.786;2023-02-03T15:41:43;9.20;;;2.80;;
10582;SDS011;33679;51.218;6.786;2023-02-03T15:44:20;10.83;;;2.40;;
10582;SDS011;33679;51.218;6.786;2023-02-03T15:47:00;9.87;;;3.30;;
10582;SDS011;33679;51.218;6.786;2023-02-03T15:49:36;11.57;;;3.43;;
10582;SDS011;33679;51.218;6.786;2023-02-03T15:52:12;12.27;;;3.23;;
10582;SDS011;33679;51.218;6.786;2023-02-03T15:54:50;15.80;;;3.90;;
10582;SDS011;33679;51.218;6.786;2023-02-03T15:57:30;13.87;;;3.00;;
10582;SDS011;33679;51.218;6.786;2023-02-03T16:00:10;9.67;;;3.67;;
10582;SDS011;33679;51.218;6.786;2023-02-03T16:02:56;8.57;;;3.20;;
10582;SDS011;33679;51.218;6.786;2023-02-03T16:05:30;9.33;;;3.30;;
10582;SDS011;33679;51.218;6.786;2023-02-03T16:08:25;14.60;;;3.23;;
10582;SDS011;33679;51.218;6.786;2023-02-03T16:11:22;14.50;;;2.67;;
10582;SDS011;33679;51.218;6.786;2023-02-03T16:13:57;6.57;;;3.33;;
10582;SDS011;33679;51.218;6.786;2023-02-03T16:16:34;9.37;;;3.40;;
10582;SDS011;33679;51.218;6.786;2023-02-03T16:19:11;12.83;;;3.10;;
10582;SDS011;33679;51.218;6.786;2023-02-03T16:21:52;12.80;;;2.40;;
10582;SDS011;33679;51.218;6.786;2023-02-03T16:24:28;13.70;;;5.17;;
10582;SDS011;33679;51.218;6.786;2023-02-03T16:27:27;11.93;;;3.20;;
10582;SDS011;33679;51.218;6.786;2023-02-03T16:30:31;8.57;;;2.30;;
10582;SDS011;33679;51.218;6.786;2023-02-03T16:33:23;11.87;;;3.10;;
10582;SDS011;33679;51.218;6.786;2023-02-03T16:36:19;6.43;;;3.23;;
10582;SDS011;33679;51.218;6.786;2023-02-03T16:39:10;8.47;;;2.77;;